Time;durP1;ratioP1;P1;durP2;ratioP2;P2;SDS_P1;SDS_P2;PMS_P1;PMS_P2;Temp;Humidity;BMP_temperature;BMP_pressure;BME280_temperature;BME280_humidity;BME280_pressure;Samples;Min_cycle;Max_cycle;Signal;HPM_P1;HPM_P2
2023/11/30 00:01:14;;;;;;;10.87;10.57;;;20.70;50.30;;;;;;4999234;28;20520;-67
2023/11/30 00:03:42;;;;;;;11.20;10.80;;;20.80;50.50;;;;;;5002526;28;20478;-67
2023/11/30 00:06:09;;;;;;;10.97;10.67;;;20.80;50.50;;;;;;4992626;28;20511;-67
2023/11/30 00:08:36;;;;;;;11.27;10.90;;;20.80;50.50;;;;;;4992767;28;20475;-67
2023/11/30 00:11:06;;;;;;;11.23;10.83;;;20.80;50.40;;;;;;5003616;28;20472;-66
2023/11/30 00:13:33;;;;;;;10.80;10.50;;;20.80;50.50;;;;;;4997554;28;20447;-67
2023/11/30 00:16:00;;;;;;;11.20;10.80;;;20.80;50.50;;;;;;4992378;28;20554;-67
2023/11/30 00:18:27;;;;;;;11.40;11.10;;;20.80;50.50;;;;;;5000785;28;20478;-67
2023/11/30 00:20:55;;;;;;;11.00;10.67;;;20.70;50.40;;;;;;5000137;28;20525;-67
2023/11/30 00:23:22;;;;;;;11.00;10.60;;;20.70;50.40;;;;;;4993142;28;20482;-67
2023/11/30 00:25:49;;;;;;;10.90;10.50;;;20.70;50.50;;;;;;4992422;28;20475;-67
2023/11/30 00:28:16;;;;;;;10.80;10.50;;;20.70;50.50;;;;;;5003325;28;20469;-67
2023/11/30 00:30:42;;;;;;;10.77;10.47;;;20.70;50.60;;;;;;5003373;28;20465;-67
2023/11/30 00:33:09;;;;;;;10.57;10.13;;;20.70;50.50;;;;;;5001739;28;20473;-67
2023/11/30 00:35:36;;;;;;;11.20;10.90;;;20.70;50.50;;;;;;4992260;28;20938;-67
2023/11/30 00:38:04;;;;;;;10.63;10.33;;;20.60;50.40;;;;;;5000214;28;20875;-67
2023/11/30 00:40:31;;;;;;;10.80;10.50;;;20.70;50.50;;;;;;4993810;28;20482;-67
2023/11/30 00:42:58;;;;;;;10.47;10.17;;;20.70;50.60;;;;;;5000031;28;20514;-67
2023/11/30 00:45:25;;;;;;;10.73;10.43;;;20.70;50.60;;;;;;5003632;28;20957;-67
2023/11/30 00:47:52;;;;;;;11.13;10.73;;;20.70;50.60;;;;;;5003606;28;20498;-67
2023/11/30 00:50:19;;;;;;;11.43;10.97;;;20.70;50.60;;;;;;4999847;28;20467;-67
2023/11/30 00:52:45;;;;;;;11.37;10.97;;;20.70;50.60;;;;;;4992082;28;20884;-67
2023/11/30 00:55:14;;;;;;;11.00;10.70;;;20.60;50.60;;;;;;5002427;28;20962;-67
2023/11/30 00:57:41;;;;;;;11.00;10.50;;;20.70;50.60;;;;;;5003452;28;20502;-67
2023/11/30 01:00:09;;;;;;;10.57;10.17;;;20.70;50.60;;;;;;5000017;28;20484;-67
2023/11/30 01:02:36;;;;;;;10.33;10.03;;;20.70;50.60;;;;;;4994216;28;20842;-67
2023/11/30 01:05:03;;;;;;;10.90;10.50;;;20.70;50.60;;;;;;4991850;28;20471;-67
2023/11/30 01:07:30;;;;;;;10.97;10.57;;;20.60;50.60;;;;;;4992075;28;21048;-67
2023/11/30 01:09:57;;;;;;;11.87;11.47;;;20.60;50.70;;;;;;4994153;28;20869;-67
2023/11/30 01:12:26;;;;;;;11.30;10.90;;;20.70;50.70;;;;;;4992000;28;20981;-67
2023/11/30 01:14:53;;;;;;;10.03;9.77;;;20.60;50.70;;;;;;5000109;28;20446;-67
2023/11/30 01:17:20;;;;;;;10.70;10.40;;;20.60;50.70;;;;;;5003113;28;20494;-67
2023/11/30 01:19:47;;;;;;;10.97;10.23;;;20.60;50.70;;;;;;5002866;28;20478;-67
2023/11/30 01:22:14;;;;;;;10.43;10.03;;;20.60;50.70;;;;;;5000882;28;20520;-67
2023/11/30 01:24:41;;;;;;;10.10;9.80;;;20.60;50.70;;;;;;4991871;28;20822;-67
2023/11/30 01:27:08;;;;;;;10.33;10.00;;;20.60;50.70;;;;;;4991668;28;21006;-67
2023/11/30 01:29:36;;;;;;;10.10;9.80;;;20.60;50.70;;;;;;4992002;28;20466;-67
2023/11/30 01:32:03;;;;;;;10.43;10.13;;;20.60;50.70;;;;;;5002335;28;20470;-67
2023/11/30 01:34:30;;;;;;;10.10;9.80;;;20.60;50.60;;;;;;4999920;28;20447;-67
2023/11/30 01:36:57;;;;;;;11.00;10.60;;;20.70;50.60;;;;;;4999718;28;20525;-67
2023/11/30 01:39:24;;;;;;;10.60;10.30;;;20.60;50.60;;;;;;5002378;28;20546;-67
2023/11/30 01:41:51;;;;;;;10.90;10.50;;;20.60;50.70;;;;;;5003119;28;20477;-67
2023/11/30 01:44:18;;;;;;;10.23;9.93;;;20.60;50.70;;;;;;5000244;28;20463;-67
2023/11/30 01:46:46;;;;;;;10.60;10.30;;;20.60;50.60;;;;;;4999789;28;20491;-67
2023/11/30 01:49:13;;;;;;;10.40;10.10;;;20.60;50.60;;;;;;4992935;28;20886;-67
2023/11/30 01:51:41;;;;;;;10.43;10.13;;;20.60;50.60;;;;;;5003149;28;20470;-67
2023/11/30 01:54:08;;;;;;;10.47;10.17;;;20.60;50.60;;;;;;5004499;28;20956;-67
2023/11/30 01:56:37;;;;;;;10.50;10.20;;;20.60;50.70;;;;;;4995246;28;20556;-67
2023/11/30 01:59:05;;;;;;;11.10;10.70;;;20.50;50.80;;;;;;5003525;28;20479;-67
2023/11/30 02:01:32;;;;;;;10.47;10.17;;;20.60;50.90;;;;;;5006539;28;20516;-67
2023/11/30 02:04:07;;;;;;;10.83;10.50;;;20.60;50.80;;;;;;5006350;28;20452;-67
2023/11/30 02:06:34;;;;;;;10.90;10.50;;;20.60;50.80;;;;;;4995142;28;20494;-67
2023/11/30 02:09:01;;;;;;;10.07;9.77;;;20.60;50.90;;;;;;5000842;28;20475;-67
2023/11/30 02:11:28;;;;;;;10.70;10.30;;;20.60;50.90;;;;;;5006362;28;20445;-67
2023/11/30 02:13:55;;;;;;;10.00;9.80;;;20.50;50.80;;;;;;5006444;28;21006;-68
2023/11/30 02:16:22;;;;;;;10.60;10.20;;;20.60;50.80;;;;;;5003145;28;20982;-68
2023/11/30 02:18:49;;;;;;;10.63;10.33;;;20.50;50.70;;;;;;5002290;28;20493;-68
2023/11/30 02:21:18;;;;;;;10.30;10.00;;;20.60;50.70;;;;;;4994606;28;20479;-68
2023/11/30 02:23:47;;;;;;;10.00;9.70;;;20.50;50.70;;;;;;5002838;28;20479;-68
2023/11/30 02:26:16;;;;;;;11.17;10.23;;;20.50;50.80;;;;;;5004571;28;20518;-68
2023/11/30 02:28:43;;;;;;;10.10;9.80;;;20.50;50.70;;;;;;5006124;28;20957;-67
2023/11/30 02:31:10;;;;;;;10.17;9.83;;;20.50;50.80;;;;;;5004401;28;20445;-68
2023/11/30 02:33:38;;;;;;;10.60;10.30;;;20.50;50.70;;;;;;5002870;28;20497;-68
2023/11/30 02:36:05;;;;;;;9.67;9.47;;;20.50;50.70;;;;;;4994549;28;20498;-68
2023/11/30 02:38:32;;;;;;;10.80;10.40;;;20.50;50.70;;;;;;5005940;28;20470;-68
2023/11/30 02:41:00;;;;;;;10.50;10.10;;;20.50;50.70;;;;;;5005869;28;20474;-68
2023/11/30 02:43:29;;;;;;;10.10;9.80;;;20.50;50.70;;;;;;4994885;28;20573;-67
2023/11/30 02:45:56;;;;;;;11.30;10.90;;;20.50;50.70;;;;;;5001742;28;20489;-67
2023/11/30 02:48:23;;;;;;;12.30;11.90;;;20.50;50.70;;;;;;5005432;28;20892;-67
2023/11/30 02:50:50;;;;;;;10.30;10.00;;;20.50;50.70;;;;;;5005825;28;20477;-67
2023/11/30 02:53:17;;;;;;;10.40;10.10;;;20.50;50.70;;;;;;5003334;28;20477;-67
2023/11/30 02:55:44;;;;;;;10.80;10.50;;;20.50;50.70;;;;;;5000873;28;20486;-68
2023/11/30 02:58:12;;;;;;;10.70;10.40;;;20.50;50.70;;;;;;5002502;28;20475;-67
2023/11/30 03:00:39;;;;;;;10.27;9.97;;;20.50;50.70;;;;;;5005606;28;20946;-67
2023/11/30 03:03:05;;;;;;;10.93;10.53;;;20.50;50.70;;;;;;5004658;28;20918;-68
2023/11/30 03:05:33;;;;;;;10.43;10.13;;;20.50;50.70;;;;;;5000428;28;20498;-67
2023/11/30 03:07:59;;;;;;;11.00;10.50;;;20.50;50.60;;;;;;4993807;28;20475;-67
2023/11/30 03:10:26;;;;;;;10.77;10.43;;;20.50;50.70;;;;;;4994119;28;20479;-67
2023/11/30 03:12:53;;;;;;;10.57;10.27;;;20.50;50.70;;;;;;4993901;28;20471;-68
2023/11/30 03:15:22;;;;;;;11.97;11.57;;;20.50;50.60;;;;;;5000958;28;20545;-67
2023/11/30 03:17:49;;;;;;;11.70;11.40;;;20.40;50.50;;;;;;4993727;28;21161;-67
2023/11/30 03:20:16;;;;;;;12.60;12.20;;;20.50;50.60;;;;;;5003769;28;20876;-67
2023/11/30 03:22:43;;;;;;;11.60;11.30;;;20.50;50.70;;;;;;5005030;28;20505;-67
2023/11/30 03:25:10;;;;;;;11.87;11.57;;;20.40;50.60;;;;;;4999738;28;20485;-67
2023/11/30 03:27:37;;;;;;;11.60;11.23;;;20.50;50.60;;;;;;4993384;28;20467;-68
2023/11/30 03:30:05;;;;;;;12.43;12.03;;;20.40;50.60;;;;;;5001948;28;20959;-67
2023/11/30 03:32:33;;;;;;;11.87;11.33;;;20.40;50.60;;;;;;5005057;28;20442;-68
2023/11/30 03:35:00;;;;;;;11.33;10.93;;;20.40;50.60;;;;;;5004225;28;20949;-67
2023/11/30 03:37:27;;;;;;;10.80;10.40;;;20.40;51.10;;;;;;5004838;28;20466;-67
2023/11/30 03:39:54;;;;;;;10.87;10.57;;;20.40;50.50;;;;;;5004971;28;20478;-67
2023/11/30 03:42:21;;;;;;;11.43;11.03;;;20.40;50.60;;;;;;5002085;28;20557;-67
2023/11/30 03:44:47;;;;;;;10.97;10.67;;;20.50;50.60;;;;;;4998815;28;20909;-67
2023/11/30 03:47:14;;;;;;;11.53;11.23;;;20.50;50.70;;;;;;5002762;28;20885;-68
2023/11/30 03:49:43;;;;;;;11.17;10.80;;;20.40;50.70;;;;;;4993475;28;20471;-67
2023/11/30 03:52:09;;;;;;;10.73;10.43;;;20.40;50.70;;;;;;5002151;28;20471;-67
2023/11/30 03:54:36;;;;;;;10.97;10.63;;;20.50;50.70;;;;;;5003781;28;20481;-68
2023/11/30 03:57:03;;;;;;;10.20;9.90;;;20.40;50.60;;;;;;5004028;28;20489;-67
2023/11/30 03:59:31;;;;;;;10.53;10.23;;;20.40;51.10;;;;;;5001179;28;20877;-67
2023/11/30 04:01:58;;;;;;;11.60;11.20;;;20.40;50.60;;;;;;4992876;28;20457;-68
2023/11/30 04:04:25;;;;;;;12.17;11.77;;;20.50;50.70;;;;;;4994285;28;20477;-67
2023/11/30 04:06:53;;;;;;;11.20;10.90;;;20.40;50.60;;;;;;4992892;28;20499;-68
2023/11/30 04:09:20;;;;;;;11.83;11.33;;;20.40;50.60;;;;;;5003220;28;21163;-68
2023/11/30 04:11:46;;;;;;;11.73;11.43;;;20.40;50.70;;;;;;5004172;28;20886;-67
2023/11/30 04:14:13;;;;;;;11.30;11.00;;;20.40;50.70;;;;;;5001970;28;20866;-67
2023/11/30 04:16:40;;;;;;;11.03;10.73;;;20.40;50.70;;;;;;4992512;28;20494;-67
2023/11/30 04:19:07;;;;;;;11.60;11.20;;;20.40;50.70;;;;;;5001272;28;20451;-67
2023/11/30 04:21:34;;;;;;;11.80;11.40;;;20.40;50.60;;;;;;5004092;28;20447;-67
2023/11/30 04:24:02;;;;;;;11.83;11.43;;;20.40;50.60;;;;;;5003358;28;20513;-67
2023/11/30 04:26:29;;;;;;;11.87;11.47;;;20.40;50.60;;;;;;4992728;28;20486;-68
2023/11/30 04:28:56;;;;;;;11.67;11.37;;;20.40;50.60;;;;;;4992496;28;20443;-67
2023/11/30 04:31:23;;;;;;;12.00;11.60;;;20.40;50.60;;;;;;5002497;28;20471;-68
2023/11/30 04:33:50;;;;;;;11.60;11.30;;;20.40;50.60;;;;;;5003863;28;20440;-68
2023/11/30 04:36:17;;;;;;;11.53;11.23;;;20.40;50.70;;;;;;5001852;28;20500;-67
2023/11/30 04:38:44;;;;;;;12.00;11.70;;;20.40;50.60;;;;;;4992369;28;20474;-67
2023/11/30 04:41:12;;;;;;;12.30;11.90;;;20.40;50.60;;;;;;4998107;28;20472;-68
2023/11/30 04:43:40;;;;;;;11.97;11.57;;;20.40;50.70;;;;;;5003619;28;20505;-68
2023/11/30 04:46:07;;;;;;;11.73;11.27;;;20.40;50.70;;;;;;5003304;28;20474;-68
2023/11/30 04:48:34;;;;;;;13.30;12.80;;;20.40;50.70;;;;;;5000604;28;20475;-68
2023/11/30 04:51:01;;;;;;;11.90;11.50;;;20.40;50.60;;;;;;4991598;28;20502;-68
2023/11/30 04:53:27;;;;;;;11.73;11.43;;;20.40;50.60;;;;;;4999616;28;20950;-68
2023/11/30 04:55:54;;;;;;;12.10;11.60;;;20.30;50.60;;;;;;5003484;28;20477;-67
2023/11/30 04:58:22;;;;;;;12.10;11.70;;;20.40;50.60;;;;;;5029630;23;20520;-66
2023/11/30 05:00:50;;;;;;;12.30;12.00;;;20.40;50.60;;;;;;5004666;28;20452;-66
2023/11/30 05:03:17;;;;;;;12.23;11.83;;;20.40;50.60;;;;;;5001867;28;20482;-66
2023/11/30 05:05:44;;;;;;;12.37;11.97;;;20.40;50.60;;;;;;5003632;28;20479;-66
2023/11/30 05:08:11;;;;;;;12.50;12.03;;;20.40;50.70;;;;;;5002566;28;20583;-67
2023/11/30 05:10:38;;;;;;;12.37;12.00;;;20.30;50.70;;;;;;4997221;28;20817;-66
2023/11/30 05:13:05;;;;;;;13.17;12.80;;;20.40;50.80;;;;;;5003386;28;20879;-66
2023/11/30 05:15:37;;;;;;;12.90;12.50;;;20.40;50.80;;;;;;5003790;28;20446;-66
2023/11/30 05:18:04;;;;;;;12.53;12.13;;;20.40;50.80;;;;;;5003446;28;20470;-66
2023/11/30 05:20:31;;;;;;;12.17;11.83;;;20.40;50.80;;;;;;4995699;28;20469;-66
2023/11/30 05:22:58;;;;;;;12.27;11.90;;;20.40;50.80;;;;;;5003339;28;20509;-66
2023/11/30 05:25:25;;;;;;;12.00;11.70;;;20.40;50.80;;;;;;5000732;28;20485;-66
2023/11/30 05:27:52;;;;;;;13.07;12.67;;;20.40;50.80;;;;;;5007307;28;20867;-66
2023/11/30 05:30:19;;;;;;;12.20;11.80;;;20.40;50.80;;;;;;4999098;28;20487;-66
2023/11/30 05:32:47;;;;;;;12.77;12.37;;;20.40;50.60;;;;;;5007259;28;20477;-67
2023/11/30 05:35:14;;;;;;;13.53;12.77;;;20.40;50.60;;;;;;5006039;28;20477;-67
2023/11/30 05:37:41;;;;;;;13.73;13.23;;;20.40;51.00;;;;;;5008406;28;20493;-66
2023/11/30 05:40:09;;;;;;;20.60;17.87;;;20.40;51.30;;;;;;4998935;28;20537;-66
2023/11/30 05:42:36;;;;;;;17.53;16.23;;;20.40;55.00;;;;;;5006863;28;20445;-66
2023/11/30 05:45:03;;;;;;;23.10;16.20;;;20.40;55.50;;;;;;5004553;28;20467;-66
2023/11/30 05:47:30;;;;;;;18.90;17.03;;;20.40;56.10;;;;;;5003440;28;20462;-66
2023/11/30 05:49:59;;;;;;;16.20;14.60;;;20.40;54.70;;;;;;5010294;28;20469;-66
2023/11/30 05:52:25;;;;;;;19.10;17.03;;;20.40;54.10;;;;;;5004028;28;20557;-66
2023/11/30 05:54:53;;;;;;;17.60;16.33;;;20.40;54.40;;;;;;5009519;28;20885;-65
2023/11/30 05:57:20;;;;;;;16.03;14.90;;;20.50;53.80;;;;;;5004538;28;21052;-65
2023/11/30 05:59:47;;;;;;;18.33;16.43;;;20.50;53.70;;;;;;5008689;28;20982;-65
2023/11/30 06:02:16;;;;;;;15.00;14.27;;;20.40;53.40;;;;;;5005428;28;20457;-66
2023/11/30 06:04:50;;;;;;;15.90;14.80;;;20.50;53.30;;;;;;5007908;28;20912;-65
2023/11/30 06:07:19;;;;;;;17.00;15.50;;;20.50;53.10;;;;;;5004737;28;20468;-66
2023/11/30 06:09:46;;;;;;;16.20;15.27;;;20.50;53.00;;;;;;5008340;28;20976;-65
2023/11/30 06:12:13;;;;;;;15.10;14.20;;;20.50;52.90;;;;;;5005331;28;20441;-65
2023/11/30 06:14:40;;;;;;;16.60;15.23;;;20.50;52.70;;;;;;5007285;28;20477;-65
2023/11/30 06:17:07;;;;;;;16.13;15.10;;;20.50;52.60;;;;;;5006091;28;20469;-66
2023/11/30 06:19:33;;;;;;;15.00;14.10;;;20.50;52.50;;;;;;5002924;28;20946;-65
2023/11/30 06:22:02;;;;;;;21.00;14.20;;;20.50;52.30;;;;;;5009940;28;20496;-66
2023/11/30 06:24:29;;;;;;;15.93;14.93;;;20.50;52.30;;;;;;5003020;28;21009;-65
2023/11/30 06:26:56;;;;;;;17.03;15.70;;;20.50;52.20;;;;;;5002508;28;21005;-66
2023/11/30 06:29:23;;;;;;;13.83;12.93;;;20.50;52.00;;;;;;5010794;28;20485;-65
2023/11/30 06:31:50;;;;;;;14.43;13.40;;;20.50;52.00;;;;;;5008542;28;20473;-66
2023/11/30 06:34:17;;;;;;;15.83;15.00;;;20.50;51.90;;;;;;5004719;28;20479;-66
2023/11/30 06:36:44;;;;;;;13.43;12.57;;;20.50;51.80;;;;;;5007309;28;20490;-65
2023/11/30 06:39:11;;;;;;;13.93;13.03;;;20.50;51.80;;;;;;5005283;28;20481;-65
2023/11/30 06:41:39;;;;;;;13.00;12.47;;;20.50;51.70;;;;;;5006383;28;20474;-65
2023/11/30 06:44:06;;;;;;;13.43;12.67;;;20.60;51.70;;;;;;5005816;28;20509;-65
2023/11/30 06:46:33;;;;;;;13.30;12.40;;;20.60;51.70;;;;;;5002203;28;20486;-65
2023/11/30 06:49:00;;;;;;;12.60;12.10;;;20.60;51.60;;;;;;5009222;28;20953;-65
2023/11/30 06:51:27;;;;;;;13.27;12.77;;;20.60;51.60;;;;;;5003110;28;20992;-65
2023/11/30 06:53:53;;;;;;;15.03;13.60;;;20.60;51.50;;;;;;5008339;28;20957;-65
2023/11/30 06:56:20;;;;;;;14.50;13.20;;;20.60;51.40;;;;;;5003955;28;20525;-66
2023/11/30 06:58:49;;;;;;;14.50;13.70;;;20.60;51.40;;;;;;5002048;28;20532;-65
2023/11/30 07:01:16;;;;;;;13.00;12.37;;;20.60;51.30;;;;;;5010231;28;20470;-65
2023/11/30 07:03:44;;;;;;;13.80;12.90;;;20.60;51.30;;;;;;5002002;28;20486;-66
2023/11/30 07:06:11;;;;;;;13.30;12.80;;;20.60;51.20;;;;;;5010074;28;20832;-65
2023/11/30 07:08:38;;;;;;;13.30;12.80;;;20.60;51.20;;;;;;5005887;28;20521;-65
2023/11/30 07:11:08;;;;;;;14.87;13.93;;;20.60;51.10;;;;;;5005226;28;20498;-65
2023/11/30 07:13:35;;;;;;;12.90;12.30;;;20.60;51.10;;;;;;5005333;28;20956;-65
2023/11/30 07:16:03;;;;;;;13.33;12.50;;;20.60;51.00;;;;;;5005262;28;20474;-65
2023/11/30 07:18:30;;;;;;;14.07;13.20;;;20.60;50.90;;;;;;5002079;28;20522;-65
2023/11/30 07:20:57;;;;;;;13.40;12.90;;;20.60;50.90;;;;;;5008140;28;20529;-65
2023/11/30 07:23:24;;;;;;;13.67;13.13;;;20.60;50.90;;;;;;5002801;28;20517;-65
2023/11/30 07:25:51;;;;;;;13.77;13.07;;;20.60;50.80;;;;;;5007162;28;20480;-65
2023/11/30 07:28:19;;;;;;;13.63;13.13;;;20.60;50.70;;;;;;5003643;28;20466;-65
2023/11/30 07:30:46;;;;;;;13.70;12.93;;;20.60;50.70;;;;;;5006446;28;20450;-65
2023/11/30 07:33:15;;;;;;;13.63;13.03;;;20.60;50.70;;;;;;5004266;28;20470;-65
2023/11/30 07:35:42;;;;;;;13.60;13.00;;;20.60;50.70;;;;;;5005662;28;20446;-65
2023/11/30 07:38:09;;;;;;;13.33;12.63;;;20.60;50.60;;;;;;5004562;28;21119;-65
2023/11/30 07:40:36;;;;;;;13.37;12.80;;;20.70;50.60;;;;;;5001315;28;20447;-65
2023/11/30 07:43:03;;;;;;;13.50;13.00;;;20.70;50.60;;;;;;5008420;28;20971;-65
2023/11/30 07:45:30;;;;;;;12.23;11.90;;;20.70;50.60;;;;;;5001886;28;20888;-65
2023/11/30 07:47:58;;;;;;;13.43;12.80;;;20.60;50.50;;;;;;5007353;28;20848;-65
2023/11/30 07:50:28;;;;;;;12.27;11.87;;;20.60;50.50;;;;;;5001974;28;20457;-65
2023/11/30 07:52:55;;;;;;;12.97;12.53;;;20.60;50.50;;;;;;5007188;28;20512;-65
2023/11/30 07:55:22;;;;;;;13.03;12.53;;;20.70;50.50;;;;;;5002965;28;20473;-65
2023/11/30 07:57:50;;;;;;;12.30;11.90;;;20.60;50.40;;;;;;5005872;28;20505;-65
2023/11/30 08:00:17;;;;;;;12.50;12.00;;;20.60;50.40;;;;;;5003407;28;20488;-65
2023/11/30 08:02:44;;;;;;;12.90;12.40;;;20.70;50.50;;;;;;5000955;28;20947;-66
2023/11/30 08:05:12;;;;;;;13.70;13.10;;;20.60;50.30;;;;;;5008958;28;21146;-65
2023/11/30 08:07:40;;;;;;;14.20;13.50;;;20.60;50.30;;;;;;5000754;28;20471;-65
2023/11/30 08:10:08;;;;;;;13.60;13.13;;;20.60;50.30;;;;;;5008319;28;20470;-65
2023/11/30 08:12:35;;;;;;;13.60;13.00;;;20.70;50.30;;;;;;5000909;28;20471;-64
2023/11/30 08:15:03;;;;;;;13.07;12.57;;;20.70;50.30;;;;;;5007469;28;20468;-65
2023/11/30 08:17:29;;;;;;;13.23;12.83;;;20.70;50.30;;;;;;5001682;28;20476;-65
2023/11/30 08:19:57;;;;;;;13.20;12.80;;;20.70;50.30;;;;;;5006868;28;20825;-66
2023/11/30 08:22:24;;;;;;;13.10;12.70;;;20.70;50.20;;;;;;5002414;28;20477;-65
2023/11/30 08:24:53;;;;;;;14.00;13.50;;;20.60;50.10;;;;;;5005774;28;20917;-65
2023/11/30 08:27:22;;;;;;;13.13;12.73;;;20.70;50.20;;;;;;5002560;28;20528;-65
2023/11/30 08:29:49;;;;;;;13.37;12.97;;;20.70;50.20;;;;;;5005440;28;20447;-65
2023/11/30 08:32:16;;;;;;;13.50;12.90;;;20.70;50.10;;;;;;5003382;28;20925;-65
2023/11/30 08:34:43;;;;;;;13.87;13.27;;;20.70;50.10;;;;;;5004614;28;20882;-65
2023/11/30 08:37:10;;;;;;;13.57;13.17;;;20.70;50.10;;;;;;5003675;28;20493;-65
2023/11/30 08:39:37;;;;;;;14.13;13.60;;;20.70;50.10;;;;;;5000274;28;20474;-65
2023/11/30 08:42:06;;;;;;;13.70;13.30;;;20.70;50.10;;;;;;5007467;28;20851;-65
2023/11/30 08:44:35;;;;;;;13.87;13.37;;;20.70;50.00;;;;;;5000785;28;20525;-66
2023/11/30 08:47:02;;;;;;;14.33;13.73;;;20.70;50.10;;;;;;5006842;28;20458;-65
2023/11/30 08:49:29;;;;;;;13.17;12.77;;;20.70;50.10;;;;;;5001571;28;20484;-65
2023/11/30 08:51:55;;;;;;;12.97;12.67;;;20.70;50.00;;;;;;5006017;28;20442;-66
2023/11/30 08:54:23;;;;;;;13.53;13.10;;;20.70;50.00;;;;;;5002167;28;20461;-65
2023/11/30 08:56:52;;;;;;;14.33;13.93;;;20.70;50.10;;;;;;5005029;28;20465;-65
2023/11/30 08:59:21;;;;;;;13.50;12.93;;;20.70;50.00;;;;;;5002800;28;21023;-65
2023/11/30 09:01:49;;;;;;;12.93;12.47;;;20.70;50.00;;;;;;5004784;28;20449;-65
2023/11/30 09:04:15;;;;;;;12.93;12.53;;;20.70;49.90;;;;;;5006537;28;20478;-65
2023/11/30 09:06:42;;;;;;;12.93;12.53;;;20.70;49.90;;;;;;5007963;28;20470;-65
2023/11/30 09:09:09;;;;;;;12.50;12.20;;;20.70;49.90;;;;;;5007473;28;20929;-65
2023/11/30 09:11:36;;;;;;;13.50;12.97;;;20.70;49.90;;;;;;5004323;28;20475;-65
2023/11/30 09:14:04;;;;;;;13.37;12.97;;;20.70;49.90;;;;;;5010829;28;20461;-65
2023/11/30 09:16:32;;;;;;;13.33;12.73;;;20.70;49.90;;;;;;5004930;28;20477;-65
2023/11/30 09:18:59;;;;;;;12.87;12.57;;;20.70;49.90;;;;;;5010016;28;20470;-66
2023/11/30 09:21:26;;;;;;;13.23;12.63;;;20.70;49.90;;;;;;5005602;28;20482;-66
2023/11/30 09:23:52;;;;;;;12.20;11.83;;;20.70;49.90;;;;;;5009023;28;20520;-65
2023/11/30 09:26:21;;;;;;;12.47;12.10;;;20.70;49.90;;;;;;5006525;28;20473;-65
2023/11/30 09:28:48;;;;;;;12.37;12.03;;;20.70;49.90;;;;;;5008635;28;20476;-65
2023/11/30 09:31:15;;;;;;;12.00;11.70;;;20.70;50.00;;;;;;5006932;28;20477;-65
2023/11/30 09:33:44;;;;;;;13.07;12.60;;;20.70;49.90;;;;;;5007344;28;20476;-65
2023/11/30 09:36:12;;;;;;;13.20;12.80;;;20.70;49.90;;;;;;5007008;28;20496;-65
2023/11/30 09:38:39;;;;;;;12.97;12.57;;;20.70;49.90;;;;;;5003445;28;20845;-65
2023/11/30 09:41:07;;;;;;;12.17;11.87;;;20.80;49.90;;;;;;5010412;28;20929;-66
2023/11/30 09:43:34;;;;;;;13.27;12.77;;;20.70;49.80;;;;;;5004230;28;20477;-65
2023/11/30 09:46:01;;;;;;;12.57;12.20;;;20.70;49.80;;;;;;5009901;28;20438;-65
2023/11/30 09:48:28;;;;;;;12.00;11.70;;;20.70;49.80;;;;;;5004785;28;20500;-64
2023/11/30 09:50:57;;;;;;;12.03;11.73;;;20.70;49.80;;;;;;5008792;28;20844;-65
2023/11/30 09:53:24;;;;;;;12.73;12.33;;;20.80;49.80;;;;;;5006633;28;20466;-65
2023/11/30 09:55:51;;;;;;;13.73;13.23;;;20.80;49.80;;;;;;5006635;28;20517;-65
2023/11/30 09:58:18;;;;;;;13.07;12.67;;;20.70;49.80;;;;;;5006069;28;20995;-66
2023/11/30 10:00:45;;;;;;;13.30;12.90;;;20.70;49.80;;;;;;5007197;28;20470;-65
2023/11/30 10:03:12;;;;;;;13.17;12.83;;;20.70;49.80;;;;;;5006520;28;20470;-65
2023/11/30 10:05:42;;;;;;;12.77;12.47;;;20.70;49.80;;;;;;5003265;28;20485;-66
2023/11/30 10:08:10;;;;;;;12.50;12.20;;;20.80;49.80;;;;;;5002132;28;20489;-66
2023/11/30 10:10:37;;;;;;;13.70;13.30;;;20.80;49.80;;;;;;5006201;28;20477;-67
2023/11/30 10:13:04;;;;;;;14.60;13.70;;;20.80;49.80;;;;;;5006036;28;20470;-66
2023/11/30 10:15:31;;;;;;;13.60;13.20;;;20.80;49.70;;;;;;5004077;28;21003;-66
2023/11/30 10:17:58;;;;;;;13.83;13.43;;;20.70;49.70;;;;;;5008408;28;20893;-66
2023/11/30 10:20:26;;;;;;;13.03;12.63;;;20.70;49.70;;;;;;5004910;28;20470;-67
2023/11/30 10:22:52;;;;;;;13.57;13.17;;;20.80;49.80;;;;;;5007666;28;20445;-66
2023/11/30 10:25:21;;;;;;;12.83;12.43;;;20.70;49.70;;;;;;5005505;28;20513;-66
2023/11/30 10:27:51;;;;;;;12.93;12.53;;;20.70;49.70;;;;;;5006761;28;20481;-66
2023/11/30 10:30:19;;;;;;;13.43;13.10;;;20.80;49.70;;;;;;5005745;28;20492;-66
2023/11/30 10:32:46;;;;;;;12.63;12.33;;;20.70;49.60;;;;;;5002689;28;20471;-66
2023/11/30 10:35:15;;;;;;;12.50;12.20;;;20.80;49.70;;;;;;5010226;28;20438;-65
2023/11/30 10:37:46;;;;;;;13.80;13.40;;;20.80;49.70;;;;;;5005875;28;20500;-65
2023/11/30 10:40:17;;;;;;;13.13;12.77;;;20.80;49.70;;;;;;5005961;28;20437;-66
2023/11/30 10:42:48;;;;;;;14.00;13.60;;;20.80;49.70;;;;;;5001709;28;20471;-66
2023/11/30 10:45:16;;;;;;;12.27;11.97;;;20.80;49.70;;;;;;4998354;28;20479;-66
2023/11/30 10:47:43;;;;;;;14.03;13.53;;;20.80;49.60;;;;;;4994668;28;20490;-66
2023/11/30 10:50:11;;;;;;;13.10;12.67;;;20.70;48.70;;;;;;4994710;28;20479;-72
2023/11/30 10:52:39;;;;;;;13.90;13.40;;;20.70;48.30;;;;;;5005894;28;20454;-74
2023/11/30 10:55:09;;;;;;;13.10;12.70;;;20.70;49.40;;;;;;5014157;28;20453;-74
2023/11/30 10:57:36;;;;;;;16.77;16.07;;;20.70;50.00;;;;;;5035574;23;20543;-70
2023/11/30 11:00:06;;;;;;;13.23;12.73;;;20.80;50.10;;;;;;5005769;28;20529;-69
2023/11/30 11:02:37;;;;;;;13.83;13.43;;;20.70;50.00;;;;;;5003573;28;20533;-70
2023/11/30 11:05:09;;;;;;;14.10;13.50;;;20.70;50.00;;;;;;5008440;28;20482;-69
2023/11/30 11:07:37;;;;;;;13.67;13.20;;;20.70;50.20;;;;;;5003920;28;20471;-68
2023/11/30 11:10:06;;;;;;;14.57;13.93;;;20.70;50.80;;;;;;5005441;28;20929;-71
2023/11/30 11:12:37;;;;;;;14.03;13.53;;;20.70;51.50;;;;;;5003883;28;20881;-69
2023/11/30 11:15:11;;;;;;;14.40;13.80;;;20.70;51.90;;;;;;5002559;28;20474;-69
2023/11/30 11:17:47;;;;;;;14.60;13.90;;;20.70;52.20;;;;;;5001978;28;20941;-67
2023/11/30 11:20:20;;;;;;;13.80;13.37;;;20.70;52.80;;;;;;5001748;28;20478;-68
2023/11/30 11:22:47;;;;;;;14.57;13.90;;;20.70;53.30;;;;;;4993916;28;20465;-69
2023/11/30 11:25:17;;;;;;;14.33;13.73;;;20.70;54.20;;;;;;5000771;28;20507;-68
2023/11/30 11:27:45;;;;;;;14.33;13.83;;;20.70;54.20;;;;;;4993149;28;21045;-70
2023/11/30 11:30:14;;;;;;;14.00;13.50;;;20.70;54.10;;;;;;5001699;28;20481;-70
2023/11/30 11:32:42;;;;;;;14.67;13.97;;;20.70;54.40;;;;;;5004447;28;20473;-70
2023/11/30 11:35:12;;;;;;;14.03;13.63;;;20.70;53.80;;;;;;5005092;28;20442;-72
2023/11/30 11:37:41;;;;;;;14.00;13.50;;;20.80;53.70;;;;;;4998217;28;20467;-69
2023/11/30 11:40:09;;;;;;;13.47;13.07;;;20.80;53.40;;;;;;4996630;28;20471;-69
2023/11/30 11:42:39;;;;;;;12.90;12.50;;;20.80;53.00;;;;;;5003730;28;20557;-69
2023/11/30 11:45:08;;;;;;;12.90;12.50;;;20.80;52.80;;;;;;5004438;28;20477;-69
2023/11/30 11:47:38;;;;;;;13.70;13.20;;;20.80;52.60;;;;;;5002120;28;20469;-69
2023/11/30 11:50:10;;;;;;;13.43;13.03;;;20.90;52.60;;;;;;5001050;28;20497;-69
2023/11/30 11:52:37;;;;;;;13.33;12.93;;;20.90;52.40;;;;;;5003361;28;20545;-69
2023/11/30 11:55:08;;;;;;;13.47;12.97;;;20.90;52.30;;;;;;5004563;28;21085;-68
2023/11/30 11:57:36;;;;;;;13.23;12.83;;;20.90;52.20;;;;;;5002287;28;20549;-69
2023/11/30 12:00:07;;;;;;;12.30;12.00;;;20.90;52.00;;;;;;5000757;28;20877;-69
2023/11/30 12:02:36;;;;;;;13.33;12.93;;;20.90;51.90;;;;;;5002761;28;20451;-69
2023/11/30 12:05:16;;;;;;;13.43;13.03;;;21.00;51.90;;;;;;5004051;28;20561;-69
2023/11/30 12:07:50;;;;;;;13.13;12.53;;;21.00;51.80;;;;;;5001058;28;20830;-68
2023/11/30 12:10:31;;;;;;;13.00;12.60;;;21.00;51.70;;;;;;5000936;28;20479;-69
2023/11/30 12:13:06;;;;;;;13.73;13.33;;;21.00;51.70;;;;;;4995229;28;20522;-68
2023/11/30 12:15:34;;;;;;;13.30;13.00;;;21.00;51.50;;;;;;5002420;28;20959;-69
2023/11/30 12:18:01;;;;;;;13.00;12.70;;;21.00;51.40;;;;;;5004012;28;20569;-69
2023/11/30 12:20:37;;;;;;;13.20;12.80;;;21.00;51.40;;;;;;5002981;28;20446;-69
2023/11/30 12:23:06;;;;;;;13.00;12.60;;;21.00;51.30;;;;;;5000774;28;20439;-69
2023/11/30 12:25:34;;;;;;;12.80;12.10;;;21.00;51.20;;;;;;5001992;28;20490;-69
2023/11/30 12:28:10;;;;;;;13.60;13.23;;;21.10;51.20;;;;;;5003928;28;20549;-69
2023/11/30 12:30:38;;;;;;;13.30;12.80;;;21.10;51.10;;;;;;5001835;28;20809;-68